createdAt,value
2018-09-17T00:00:18.479Z,99.90
2018-09-17T00:02:47.371Z,99.90
2018-09-17T00:05:16.290Z,99.90
2018-09-17T00:07:45.239Z,99.90
2018-09-17T00:10:14.272Z,99.90
2018-09-17T00:12:43.181Z,99.90
2018-09-17T00:15:12.074Z,99.90
2018-09-17T00:17:40.933Z,99.90
2018-09-17T00:20:09.971Z,99.90
2018-09-17T00:22:38.824Z,99.90
2018-09-17T00:25:07.754Z,99.90
2018-09-17T00:27:36.804Z,99.90
2018-09-17T00:30:05.702Z,99.90
2018-09-17T00:32:34.614Z,99.90
2018-09-17T00:35:03.558Z,99.90
2018-09-17T00:37:32.452Z,99.90
2018-09-17T00:40:01.307Z,99.90
2018-09-17T00:42:30.223Z,99.90
2018-09-17T00:44:59.092Z,99.90
2018-09-17T00:47:27.958Z,99.90
2018-09-17T00:49:56.840Z,99.90
2018-09-17T00:52:25.704Z,99.90
2018-09-17T00:54:54.572Z,99.90
2018-09-17T00:57:23.569Z,99.90
2018-09-17T00:59:52.426Z,99.90
2018-09-17T01:02:21.358Z,99.90
2018-09-17T01:04:50.267Z,99.90
2018-09-17T01:07:19.116Z,99.90
2018-09-17T01:09:48.005Z,99.90
2018-09-17T01:12:17.029Z,99.90
2018-09-17T01:14:45.920Z,99.90
2018-09-17T01:17:14.846Z,99.90
2018-09-17T01:19:43.790Z,99.90
2018-09-17T01:22:12.796Z,99.90
2018-09-17T01:24:41.704Z,99.90
2018-09-17T01:27:10.684Z,99.90
2018-09-17T01:29:39.576Z,99.90
2018-09-17T01:32:08.470Z,99.90
2018-09-17T01:34:37.424Z,99.90
2018-09-17T01:37:06.320Z,99.90
2018-09-17T01:39:35.199Z,99.90
2018-09-17T01:42:04.168Z,99.90
2018-09-17T01:44:33.104Z,99.90
2018-09-17T01:47:01.959Z,99.90
2018-09-17T01:49:30.887Z,99.90
2018-09-17T01:51:59.772Z,99.90
2018-09-17T01:54:28.656Z,99.90
2018-09-17T01:56:57.639Z,99.90
2018-09-17T01:59:26.525Z,99.90
2018-09-17T02:01:55.397Z,99.90
2018-09-17T02:04:24.332Z,99.90
2018-09-17T02:06:53.176Z,99.90
2018-09-17T02:09:22.027Z,99.90
2018-09-17T02:11:51.003Z,99.90
2018-09-17T02:14:19.885Z,99.90
2018-09-17T02:16:48.764Z,99.90
2018-09-17T02:19:17.757Z,99.90
2018-09-17T02:21:46.725Z,99.90
2018-09-17T02:24:15.779Z,99.90
2018-09-17T02:26:44.773Z,99.90
2018-09-17T02:29:13.631Z,99.90
2018-09-17T02:31:42.552Z,99.90
2018-09-17T02:34:11.460Z,99.90
2018-09-17T02:36:40.330Z,99.90
2018-09-17T02:39:09.339Z,99.90
2018-09-17T02:41:38.240Z,99.90
2018-09-17T02:44:07.199Z,99.90
2018-09-17T02:46:36.061Z,99.90
2018-09-17T02:49:04.984Z,99.90
2018-09-17T02:51:33.853Z,99.90
2018-09-17T02:54:02.713Z,99.90
2018-09-17T02:56:31.615Z,99.90
2018-09-17T02:59:00.485Z,99.90
2018-09-17T03:01:29.361Z,99.90
2018-09-17T03:03:58.268Z,99.90
2018-09-17T03:06:27.141Z,99.90
2018-09-17T03:08:56.027Z,99.90
2018-09-17T03:11:24.949Z,99.90
2018-09-17T03:13:53.833Z,99.90
2018-09-17T03:16:22.767Z,99.90
2018-09-17T03:18:55.664Z,99.90
2018-09-17T03:21:24.700Z,99.90
2018-09-17T03:23:53.955Z,99.90
2018-09-17T03:26:23.438Z,99.90
2018-09-17T03:28:52.341Z,99.90
2018-09-17T03:31:21.208Z,99.90
2018-09-17T03:33:50.218Z,99.90
2018-09-17T03:36:19.113Z,99.90
2018-09-17T03:38:48.995Z,99.90
2018-09-17T03:41:19.049Z,99.90
2018-09-17T03:43:50.284Z,99.90
2018-09-17T03:46:19.254Z,99.90
2018-09-17T03:48:48.214Z,99.90
2018-09-17T03:51:17.450Z,99.90
2018-09-17T03:53:46.388Z,99.90
2018-09-17T03:56:15.261Z,99.90
2018-09-17T03:58:44.190Z,99.90
2018-09-17T04:01:13.094Z,99.90
2018-09-17T04:03:41.972Z,99.90
2018-09-17T04:06:10.839Z,99.90
2018-09-17T04:08:39.780Z,99.90
2018-09-17T04:11:08.678Z,99.90
2018-09-17T04:13:37.571Z,99.90
2018-09-17T04:16:06.557Z,99.90
2018-09-17T04:18:35.457Z,99.90
2018-09-17T04:21:04.357Z,99.90
2018-09-17T04:23:36.062Z,99.90
2018-09-17T04:26:06.266Z,99.90
2018-09-17T04:28:35.870Z,99.90
2018-09-17T04:31:05.100Z,99.90
2018-09-17T04:33:39.139Z,99.90
2018-09-17T04:36:08.620Z,99.90
2018-09-17T04:38:37.535Z,99.90
2018-09-17T04:41:06.420Z,99.90
2018-09-17T04:43:35.385Z,99.90
2018-09-17T04:46:04.255Z,99.90
2018-09-17T04:48:33.196Z,99.90
2018-09-17T04:51:02.157Z,99.90
2018-09-17T04:53:31.089Z,99.90
2018-09-17T04:56:01.428Z,99.90
2018-09-17T04:58:30.352Z,99.90
2018-09-17T05:01:02.224Z,99.90
2018-09-17T05:03:31.941Z,99.90
2018-09-17T05:06:00.942Z,99.90
2018-09-17T05:08:30.037Z,99.90
2018-09-17T05:10:59.005Z,99.90
2018-09-17T05:13:28.026Z,99.90
2018-09-17T05:15:56.957Z,99.90
2018-09-17T05:18:25.866Z,99.70
2018-09-17T05:20:54.773Z,99.60
2018-09-17T05:23:23.753Z,99.40
2018-09-17T05:25:52.641Z,99.50
2018-09-17T05:28:21.530Z,99.10
2018-09-17T05:30:50.613Z,99.10
2018-09-17T05:33:19.521Z,99.00
2018-09-17T05:35:48.417Z,98.60
2018-09-17T05:38:17.382Z,98.40
2018-09-17T05:40:46.270Z,98.20
2018-09-17T05:43:15.139Z,97.80
2018-09-17T05:45:44.103Z,97.50
2018-09-17T05:48:13.044Z,98.00
2018-09-17T05:50:42.061Z,97.30
2018-09-17T05:53:11.023Z,97.20
2018-09-17T05:55:39.901Z,97.20
2018-09-17T05:58:08.831Z,96.90
2018-09-17T06:00:37.917Z,96.30
2018-09-17T06:03:06.940Z,95.70
2018-09-17T06:05:35.939Z,95.80
2018-09-17T06:08:05.008Z,95.80
2018-09-17T06:10:33.956Z,95.50
2018-09-17T06:13:03.561Z,95.70
2018-09-17T06:15:32.512Z,95.40
2018-09-17T06:18:01.410Z,95.20
2018-09-17T06:20:30.392Z,95.10
2018-09-17T06:22:59.321Z,94.70
2018-09-17T06:25:28.271Z,94.30
2018-09-17T06:27:57.279Z,94.20
2018-09-17T06:30:26.434Z,93.80
2018-09-17T06:32:55.749Z,93.40
2018-09-17T06:35:28.392Z,92.70
2018-09-17T06:37:57.258Z,92.30
2018-09-17T06:40:26.167Z,92.10
2018-09-17T06:42:55.076Z,92.00
2018-09-17T06:45:23.954Z,91.60
2018-09-17T06:47:52.860Z,91.20
2018-09-17T06:50:21.831Z,91.40
2018-09-17T06:52:50.699Z,91.10
2018-09-17T06:55:19.639Z,91.40
2018-09-17T06:57:48.609Z,91.20
2018-09-17T07:00:17.641Z,91.30
2018-09-17T07:02:46.765Z,91.00
2018-09-17T07:05:16.029Z,90.70
2018-09-17T07:07:44.957Z,91.20
2018-09-17T07:10:13.852Z,90.40
2018-09-17T07:12:42.805Z,90.30
2018-09-17T07:15:11.730Z,90.00
2018-09-17T07:17:40.647Z,90.10
2018-09-17T07:20:09.611Z,89.90
2018-09-17T07:22:38.981Z,89.50
2018-09-17T07:25:08.201Z,90.20
2018-09-17T07:27:37.173Z,89.50
2018-09-17T07:30:06.124Z,88.50
2018-09-17T07:32:35.038Z,89.10
2018-09-17T07:35:04.036Z,88.40
2018-09-17T07:37:33.004Z,87.80
2018-09-17T07:40:01.861Z,87.40
2018-09-17T07:42:30.838Z,88.20
2018-09-17T07:44:59.748Z,86.50
2018-09-17T07:47:28.657Z,85.90
2018-09-17T07:49:57.585Z,84.80
2018-09-17T07:52:26.477Z,86.40
2018-09-17T07:54:55.344Z,86.40
2018-09-17T07:57:24.256Z,85.90
2018-09-17T07:59:53.137Z,85.70
2018-09-17T08:02:22.029Z,86.40
2018-09-17T08:04:51.065Z,85.20
2018-09-17T08:07:20.271Z,85.30
2018-09-17T08:09:49.168Z,84.30
2018-09-17T08:12:18.161Z,83.80
2018-09-17T08:14:47.041Z,81.10
2018-09-17T08:17:15.977Z,82.00
2018-09-17T08:19:45.011Z,80.40
2018-09-17T08:22:13.927Z,80.00
2018-09-17T08:24:42.848Z,81.10
2018-09-17T08:27:11.816Z,80.70
2018-09-17T08:29:40.739Z,79.00
2018-09-17T08:32:09.686Z,81.00
2018-09-17T08:34:38.684Z,80.30
2018-09-17T08:37:07.681Z,77.50
2018-09-17T08:39:36.789Z,79.00
2018-09-17T08:42:05.745Z,77.40
2018-09-17T08:44:34.683Z,78.40
2018-09-17T08:47:04.238Z,78.10
2018-09-17T08:49:33.189Z,78.40
2018-09-17T08:52:02.213Z,78.40
2018-09-17T08:54:31.137Z,77.10
2018-09-17T08:57:00.271Z,77.50
2018-09-17T08:59:34.499Z,75.00
2018-09-17T09:02:08.556Z,75.70
2018-09-17T09:04:42.635Z,76.20
2018-09-17T09:07:15.710Z,75.40
2018-09-17T09:09:44.674Z,73.00
2018-09-17T09:12:25.725Z,72.40
2018-09-17T09:15:00.693Z,70.80
2018-09-17T09:17:29.634Z,71.80
2018-09-17T09:19:58.545Z,72.00
2018-09-17T09:22:27.561Z,70.80
2018-09-17T09:24:56.524Z,71.10
2018-09-17T09:27:25.405Z,70.50
2018-09-17T09:29:54.447Z,69.90
2018-09-17T09:32:23.360Z,68.60
2018-09-17T09:34:52.748Z,68.10
2018-09-17T09:37:21.702Z,69.70
2018-09-17T09:39:50.643Z,69.60
2018-09-17T09:42:19.521Z,70.90
2018-09-17T09:44:48.478Z,66.60
2018-09-17T09:47:17.465Z,68.00
2018-09-17T09:49:46.363Z,67.90
2018-09-17T09:52:15.311Z,67.60
2018-09-17T09:54:44.177Z,68.70
2018-09-17T09:57:13.070Z,66.80
2018-09-17T09:59:42.009Z,64.80
2018-09-17T10:02:16.089Z,63.30
2018-09-17T10:04:45.009Z,63.70
2018-09-17T10:07:13.922Z,66.40
2018-09-17T10:09:48.041Z,66.20
2018-09-17T10:12:22.112Z,63.20
2018-09-17T10:14:56.109Z,66.20
2018-09-17T10:17:30.270Z,63.10
2018-09-17T10:19:59.228Z,62.90
2018-09-17T10:22:28.131Z,63.50
2018-09-17T10:24:57.040Z,61.50
2018-09-17T10:27:25.936Z,59.60
2018-09-17T10:29:54.905Z,60.50
2018-09-17T10:32:23.770Z,62.80
2018-09-17T10:34:52.732Z,59.00
2018-09-17T10:37:21.637Z,59.60
2018-09-17T10:39:50.550Z,60.30
2018-09-17T10:42:19.635Z,57.20
2018-09-17T10:44:48.509Z,58.10
2018-09-17T10:47:17.404Z,57.50
2018-09-17T10:49:46.336Z,57.60
2018-09-17T10:52:15.214Z,57.90
2018-09-17T10:54:44.150Z,58.00
2018-09-17T10:57:13.058Z,56.60
2018-09-17T10:59:41.916Z,58.20
2018-09-17T11:02:10.767Z,56.80
2018-09-17T11:04:39.696Z,56.50
2018-09-17T11:07:08.610Z,58.70
2018-09-17T11:09:37.507Z,59.50
2018-09-17T11:12:06.478Z,58.10
2018-09-17T11:14:35.389Z,56.30
2018-09-17T11:17:04.257Z,58.00
2018-09-17T11:19:33.219Z,57.60
2018-09-17T11:22:02.082Z,54.50
2018-09-17T11:24:31.000Z,54.20
2018-09-17T11:27:00.406Z,55.10
2018-09-17T11:29:29.304Z,55.70
2018-09-17T11:31:58.168Z,57.00
2018-09-17T11:34:27.137Z,56.70
2018-09-17T11:36:56.033Z,56.40
2018-09-17T11:39:24.893Z,56.00
2018-09-17T11:41:53.835Z,55.90
2018-09-17T11:44:22.771Z,57.10
2018-09-17T11:46:51.746Z,53.80
2018-09-17T11:49:20.645Z,54.40
2018-09-17T11:51:49.521Z,54.20
2018-09-17T11:54:18.393Z,56.00
2018-09-17T11:56:47.345Z,54.50
2018-09-17T11:59:16.214Z,55.30
2018-09-17T12:01:51.670Z,54.90
2018-09-17T12:04:25.800Z,53.80
2018-09-17T12:06:59.930Z,53.70
2018-09-17T12:09:28.808Z,54.50
2018-09-17T12:11:57.729Z,55.90
2018-09-17T12:14:26.700Z,55.80
2018-09-17T12:16:56.477Z,54.70
2018-09-17T12:19:26.023Z,54.60
2018-09-17T12:21:54.954Z,54.80
2018-09-17T12:24:23.859Z,55.20
2018-09-17T12:26:54.737Z,54.80
2018-09-17T12:29:23.680Z,55.80
2018-09-17T12:31:52.516Z,54.00
2018-09-17T12:34:21.349Z,55.00
2018-09-17T12:36:50.265Z,55.20
2018-09-17T12:39:20.049Z,54.20
2018-09-17T12:41:49.057Z,54.40
2018-09-17T12:44:17.958Z,54.50
2018-09-17T12:46:46.843Z,54.10
2018-09-17T12:49:15.703Z,56.40
2018-09-17T12:51:44.650Z,55.00
2018-09-17T12:54:13.521Z,54.90
2018-09-17T12:56:42.620Z,52.60
2018-09-17T12:59:11.510Z,53.20
2018-09-17T13:01:40.498Z,52.40
2018-09-17T13:04:09.377Z,52.50
2018-09-17T13:06:38.235Z,51.40
2018-09-17T13:09:08.813Z,50.60
2018-09-17T13:11:37.657Z,52.20
2018-09-17T13:14:06.605Z,52.10
2018-09-17T13:16:38.225Z,51.00
2018-09-17T13:19:09.029Z,50.30
2018-09-17T13:21:37.990Z,51.90
2018-09-17T13:24:07.676Z,51.10
2018-09-17T13:26:37.645Z,52.10
2018-09-17T13:29:06.580Z,51.70
2018-09-17T13:31:35.905Z,53.10
2018-09-17T13:34:04.829Z,53.00
2018-09-17T13:36:33.676Z,52.60
2018-09-17T13:39:03.057Z,53.40
2018-09-17T13:41:31.972Z,52.70
2018-09-17T13:44:00.975Z,53.50
2018-09-17T13:46:29.866Z,53.60
2018-09-17T13:48:58.868Z,52.70
2018-09-17T13:51:27.811Z,53.40
2018-09-17T13:53:56.899Z,52.10
2018-09-17T13:56:25.905Z,52.90
2018-09-17T13:58:55.569Z,52.20
2018-09-17T14:01:24.548Z,52.90
2018-09-17T14:03:53.477Z,52.60
2018-09-17T14:06:22.355Z,52.90
2018-09-17T14:08:51.231Z,53.20
2018-09-17T14:11:20.349Z,52.00
2018-09-17T14:13:49.234Z,52.90
2018-09-17T14:16:23.312Z,52.40
2018-09-17T14:18:52.657Z,52.50
2018-09-17T14:21:21.629Z,53.00
2018-09-17T14:23:50.577Z,53.40
2018-09-17T14:26:19.845Z,54.10
2018-09-17T14:28:49.290Z,52.90
2018-09-17T14:31:22.322Z,52.70
2018-09-17T14:33:51.269Z,53.30
2018-09-17T14:36:21.479Z,53.70
2018-09-17T14:38:50.466Z,54.60
2018-09-17T14:41:19.380Z,55.00
2018-09-17T14:43:48.616Z,55.70
2018-09-17T14:46:18.129Z,55.20
2018-09-17T14:48:47.175Z,55.60
2018-09-17T14:51:16.231Z,55.70
2018-09-17T14:53:45.225Z,56.10
2018-09-17T14:56:14.100Z,57.40
2018-09-17T14:58:43.031Z,55.80
2018-09-17T15:01:11.933Z,55.60
2018-09-17T15:03:40.792Z,56.30
2018-09-17T15:06:09.716Z,57.50
2018-09-17T15:08:38.596Z,57.40
2018-09-17T15:11:08.132Z,58.00
2018-09-17T15:13:37.124Z,58.10
2018-09-17T15:16:06.960Z,57.90
2018-09-17T15:18:35.907Z,59.40
2018-09-17T15:21:04.843Z,57.60
2018-09-17T15:23:33.690Z,58.10
2018-09-17T15:26:02.601Z,57.70
2018-09-17T15:28:31.502Z,57.90
2018-09-17T15:31:01.330Z,57.90
2018-09-17T15:33:30.128Z,57.90
2018-09-17T15:35:59.052Z,57.60
2018-09-17T15:38:28.073Z,58.40
2018-09-17T15:40:56.973Z,59.00
2018-09-17T15:43:25.912Z,59.60
2018-09-17T15:45:54.817Z,59.00
2018-09-17T15:48:23.670Z,59.90
2018-09-17T15:50:52.565Z,58.50
2018-09-17T15:53:21.515Z,60.20
2018-09-17T15:55:50.478Z,60.50
2018-09-17T15:58:21.090Z,61.10
2018-09-17T16:00:49.971Z,61.30
2018-09-17T16:03:18.851Z,61.40
2018-09-17T16:05:48.546Z,61.80
2018-09-17T16:08:17.441Z,63.50
2018-09-17T16:10:46.323Z,63.30
2018-09-17T16:13:15.258Z,64.30
2018-09-17T16:15:44.231Z,64.40
2018-09-17T16:18:13.084Z,64.90
2018-09-17T16:20:42.093Z,65.40
2018-09-17T16:23:11.063Z,66.70
2018-09-17T16:25:40.037Z,67.90
2018-09-17T16:28:08.952Z,67.10
2018-09-17T16:30:37.816Z,69.50
2018-09-17T16:33:06.698Z,69.00
2018-09-17T16:35:35.664Z,69.20
2018-09-17T16:38:09.216Z,69.00
2018-09-17T16:40:38.198Z,69.10
2018-09-17T16:43:07.058Z,70.00
2018-09-17T16:45:35.910Z,71.80
2018-09-17T16:48:04.837Z,72.40
2018-09-17T16:50:34.246Z,72.60
2018-09-17T16:53:03.127Z,73.30
2018-09-17T16:55:32.293Z,73.70
2018-09-17T16:58:01.404Z,74.10
2018-09-17T17:00:30.771Z,74.20
2018-09-17T17:02:59.747Z,74.70
2018-09-17T17:05:28.618Z,75.20
2018-09-17T17:07:57.493Z,75.80
2018-09-17T17:10:26.432Z,76.40
2018-09-17T17:12:55.345Z,77.10
2018-09-17T17:15:24.551Z,77.70
2018-09-17T17:17:54.175Z,77.90
2018-09-17T17:20:23.181Z,79.80
2018-09-17T17:22:52.333Z,79.50
2018-09-17T17:25:21.344Z,80.40
2018-09-17T17:27:50.601Z,81.50
2018-09-17T17:30:19.552Z,82.50
2018-09-17T17:32:48.528Z,83.20
2018-09-17T17:35:17.485Z,83.70
2018-09-17T17:37:46.381Z,84.20
2018-09-17T17:40:15.416Z,84.40
2018-09-17T17:42:44.409Z,85.00
2018-09-17T17:45:13.291Z,85.70
2018-09-17T17:47:42.294Z,86.20
2018-09-17T17:50:11.244Z,86.80
2018-09-17T17:52:40.159Z,87.50
2018-09-17T17:55:09.137Z,88.30
2018-09-17T17:57:38.034Z,88.70
2018-09-17T18:00:08.886Z,89.30
2018-09-17T18:02:37.819Z,89.80
2018-09-17T18:05:06.824Z,90.30
2018-09-17T18:07:37.031Z,90.20
2018-09-17T18:10:06.143Z,90.40
2018-09-17T18:12:35.158Z,90.60
2018-09-17T18:15:05.129Z,90.70
2018-09-17T18:17:36.495Z,90.90
2018-09-17T18:20:11.399Z,91.00
2018-09-17T18:22:41.848Z,91.20
2018-09-17T18:25:10.729Z,91.30
2018-09-17T18:27:39.668Z,91.50
2018-09-17T18:30:09.179Z,91.70
2018-09-17T18:32:38.165Z,91.80
2018-09-17T18:35:07.238Z,91.90
2018-09-17T18:37:36.569Z,92.20
2018-09-17T18:40:05.636Z,92.00
2018-09-17T18:42:34.656Z,92.00
2018-09-17T18:45:03.892Z,92.00
2018-09-17T18:47:33.296Z,92.00
2018-09-17T18:50:03.680Z,91.90
2018-09-17T18:52:32.646Z,92.10
2018-09-17T18:55:03.015Z,92.30
2018-09-17T18:57:32.048Z,92.40
2018-09-17T19:00:01.041Z,92.40
2018-09-17T19:02:29.917Z,92.70
2018-09-17T19:04:58.985Z,92.50
2018-09-17T19:07:28.402Z,92.60
2018-09-17T19:09:57.496Z,92.70
2018-09-17T19:12:26.592Z,92.90
2018-09-17T19:15:00.751Z,93.10
2018-09-17T19:17:35.038Z,93.20
2018-09-17T19:20:04.206Z,93.20
2018-09-17T19:22:38.671Z,93.20
2018-09-17T19:25:07.706Z,93.20
2018-09-17T19:27:41.722Z,93.20
2018-09-17T19:30:11.021Z,93.30
2018-09-17T19:32:39.960Z,93.40
2018-09-17T19:35:08.840Z,93.90
2018-09-17T19:37:43.214Z,93.70
2018-09-17T19:40:15.396Z,93.70
2018-09-17T19:42:45.681Z,93.70
2018-09-17T19:45:20.061Z,93.70
2018-09-17T19:47:51.681Z,93.90
2018-09-17T19:50:25.722Z,93.80
2018-09-17T19:52:54.741Z,93.90
2018-09-17T19:55:23.790Z,94.00
2018-09-17T19:57:57.925Z,94.10
2018-09-17T20:00:27.229Z,94.10
2018-09-17T20:02:56.393Z,94.00
2018-09-17T20:05:30.510Z,94.20
2018-09-17T20:07:59.688Z,94.40
2018-09-17T20:10:29.425Z,94.60
2018-09-17T20:12:58.292Z,94.70
2018-09-17T20:15:27.232Z,94.80
2018-09-17T20:17:56.246Z,94.70
2018-09-17T20:20:25.526Z,95.00
2018-09-17T20:22:54.431Z,95.00
2018-09-17T20:25:23.381Z,94.90
2018-09-17T20:27:54.061Z,95.10
2018-09-17T20:30:23.122Z,95.20
2018-09-17T20:32:52.443Z,95.40
2018-09-17T20:35:22.690Z,95.50
2018-09-17T20:37:51.737Z,95.70
2018-09-17T20:40:20.892Z,95.90
2018-09-17T20:42:50.126Z,96.00
2018-09-17T20:45:19.260Z,96.10
2018-09-17T20:47:48.464Z,96.10
2018-09-17T20:50:19.533Z,96.10
2018-09-17T20:52:48.554Z,96.10
2018-09-17T20:55:17.753Z,95.80
2018-09-17T20:57:46.749Z,95.90
2018-09-17T21:00:15.746Z,96.00
2018-09-17T21:02:44.789Z,96.10
2018-09-17T21:05:13.764Z,96.20
2018-09-17T21:07:42.617Z,96.20
2018-09-17T21:10:11.630Z,96.20
2018-09-17T21:12:40.716Z,96.20
2018-09-17T21:15:09.601Z,96.30
2018-09-17T21:17:38.472Z,96.80
2018-09-17T21:20:07.542Z,96.50
2018-09-17T21:22:36.483Z,96.60
2018-09-17T21:25:05.478Z,96.70
2018-09-17T21:27:34.456Z,96.70
2018-09-17T21:30:03.389Z,96.70
2018-09-17T21:32:32.313Z,96.80
2018-09-17T21:35:01.257Z,96.80
2018-09-17T21:37:30.551Z,96.90
2018-09-17T21:39:59.463Z,96.80
2018-09-17T21:42:28.404Z,96.90
2018-09-17T21:44:57.296Z,97.00
2018-09-17T21:47:26.218Z,97.10
2018-09-17T21:49:55.154Z,97.20
2018-09-17T21:52:24.038Z,97.30
2018-09-17T21:54:52.960Z,97.50
2018-09-17T21:57:21.901Z,97.60
2018-09-17T21:59:50.799Z,97.50
2018-09-17T22:02:19.727Z,98.00
2018-09-17T22:04:48.706Z,97.70
2018-09-17T22:07:17.603Z,98.00
2018-09-17T22:09:46.497Z,97.80
2018-09-17T22:12:15.497Z,97.90
2018-09-17T22:14:44.363Z,98.20
2018-09-17T22:17:13.279Z,98.20
2018-09-17T22:19:42.269Z,98.20
2018-09-17T22:22:11.184Z,98.10
2018-09-17T22:24:40.110Z,98.20
2018-09-17T22:27:09.134Z,98.70
2018-09-17T22:29:37.998Z,98.90
2018-09-17T22:32:06.926Z,99.20
2018-09-17T22:34:35.876Z,99.50
2018-09-17T22:37:04.772Z,99.20
2018-09-17T22:39:33.664Z,99.20
2018-09-17T22:42:02.650Z,99.30
2018-09-17T22:44:31.562Z,99.40
2018-09-17T22:47:00.528Z,99.30
2018-09-17T22:49:29.489Z,99.40
2018-09-17T22:51:58.393Z,99.40
2018-09-17T22:54:27.256Z,99.40
2018-09-17T22:56:56.196Z,99.40
2018-09-17T22:59:25.138Z,99.50
2018-09-17T23:01:54.028Z,99.40
2018-09-17T23:04:23.024Z,99.60
2018-09-17T23:06:51.927Z,99.50
2018-09-17T23:09:20.817Z,99.60
2018-09-17T23:11:49.762Z,99.50
2018-09-17T23:14:18.747Z,99.90
2018-09-17T23:16:47.636Z,99.70
2018-09-17T23:19:16.694Z,99.70
2018-09-17T23:21:45.585Z,99.60
2018-09-17T23:24:14.490Z,99.60
2018-09-17T23:26:43.453Z,99.70
2018-09-17T23:29:12.319Z,99.70
2018-09-17T23:31:41.219Z,99.90
2018-09-17T23:34:10.148Z,99.90
2018-09-17T23:36:39.015Z,99.90
2018-09-17T23:39:10.882Z,99.90
2018-09-17T23:41:40.452Z,99.90
2018-09-17T23:44:09.335Z,99.90
2018-09-17T23:46:38.242Z,99.90
2018-09-17T23:49:07.131Z,99.90
2018-09-17T23:51:36.096Z,99.90
2018-09-17T23:54:05.036Z,99.90
2018-09-17T23:56:33.912Z,99.90
2018-09-17T23:59:02.820Z,99.90
